createdAt,value
2022-10-12T00:01:33.227Z,102225.09
2022-10-12T00:06:36.086Z,102217.66
2022-10-12T00:11:40.740Z,102225.22
2022-10-12T00:16:44.816Z,102225.06
2022-10-12T00:21:47.537Z,102221.75
2022-10-12T00:26:51.843Z,102221.13
2022-10-12T00:31:56.025Z,102218.72
2022-10-12T00:36:58.784Z,102210.50
2022-10-12T00:42:01.550Z,102223.91
2022-10-12T00:47:10.263Z,102220.09
2022-10-12T00:52:16.709Z,102214.47
2022-10-12T00:57:21.302Z,102216.28
2022-10-12T01:02:29.028Z,102228.88
2022-10-12T01:07:32.089Z,102222.97
2022-10-12T01:12:36.674Z,102232.06
2022-10-12T01:17:54.243Z,102232.09
2022-10-12T01:23:12.687Z,102221.63
2022-10-12T01:28:24.850Z,102217.75
2022-10-12T01:33:36.445Z,102216.47
2022-10-12T01:38:49.564Z,102214.31
2022-10-12T01:43:53.211Z,102204.22
2022-10-12T01:49:00.308Z,102191.50
2022-10-12T01:54:12.083Z,102191.00
2022-10-12T01:59:21.161Z,102195.44
2022-10-12T02:04:34.043Z,102183.66
2022-10-12T02:09:38.479Z,102185.94
2022-10-12T02:14:45.679Z,102185.84
2022-10-12T02:19:53.853Z,102179.13
2022-10-12T02:24:59.655Z,102179.13
2022-10-12T02:30:03.073Z,102163.59
2022-10-12T02:35:12.910Z,102163.31
2022-10-12T02:40:22.038Z,102167.53
2022-10-12T02:45:26.571Z,102146.31
2022-10-12T02:50:32.054Z,102151.28
2022-10-12T02:55:39.184Z,102158.66
2022-10-12T03:00:42.063Z,102148.00
2022-10-12T03:05:47.052Z,102141.91
2022-10-12T03:10:49.838Z,102148.84
2022-10-12T03:15:52.567Z,102144.72
2022-10-12T03:20:56.668Z,102143.94
2022-10-12T03:25:59.441Z,102137.13
2022-10-12T03:31:02.610Z,102139.03
2022-10-12T03:36:07.523Z,102141.13
2022-10-12T03:41:10.293Z,102136.19
2022-10-12T03:46:13.846Z,102140.88
2022-10-12T03:51:17.981Z,102131.16
2022-10-12T03:56:20.973Z,102134.00
2022-10-12T04:01:23.814Z,102140.22
2022-10-12T04:06:28.198Z,102140.41
2022-10-12T04:11:30.958Z,102141.75
2022-10-12T04:16:33.777Z,102134.47
2022-10-12T04:21:38.023Z,102141.09
2022-10-12T04:26:40.760Z,102129.63
2022-10-12T04:31:43.623Z,102130.44
2022-10-12T04:36:47.723Z,102130.72
2022-10-12T04:41:50.523Z,102122.63
2022-10-12T04:46:53.219Z,102126.91
2022-10-12T04:51:57.378Z,102118.78
2022-10-12T04:57:00.204Z,102126.81
2022-10-12T05:02:03.112Z,102130.00
2022-10-12T05:07:07.366Z,102132.56
2022-10-12T05:12:10.423Z,102131.34
2022-10-12T05:17:13.251Z,102126.94
2022-10-12T05:22:17.419Z,102130.66
2022-10-12T05:27:20.926Z,102128.53
2022-10-12T05:32:24.080Z,102137.81
2022-10-12T05:37:29.416Z,102134.97
2022-10-12T05:42:32.208Z,102122.53
2022-10-12T05:47:35.188Z,102129.97
2022-10-12T05:52:39.850Z,102122.16
2022-10-12T05:57:48.393Z,102128.75
2022-10-12T06:02:53.747Z,102126.94
2022-10-12T06:07:57.796Z,102137.28
2022-10-12T06:13:00.846Z,102129.78
2022-10-12T06:18:03.718Z,102140.91
2022-10-12T06:23:08.043Z,102134.47
2022-10-12T06:28:10.813Z,102137.59
2022-10-12T06:33:13.730Z,102138.00
2022-10-12T06:38:17.993Z,102139.16
2022-10-12T06:43:22.695Z,102140.81
2022-10-12T06:48:25.463Z,102143.56
2022-10-12T06:53:31.259Z,102133.81
2022-10-12T06:58:34.004Z,102146.19
2022-10-12T07:03:37.209Z,102140.47
2022-10-12T07:08:42.549Z,102141.19
2022-10-12T07:13:45.715Z,102141.25
2022-10-12T07:18:48.456Z,102147.03
2022-10-12T07:23:53.478Z,102153.19
2022-10-12T07:28:56.507Z,102156.38
2022-10-12T07:33:59.307Z,102159.28
2022-10-12T07:39:03.956Z,102154.25
2022-10-12T07:44:06.829Z,102163.25
2022-10-12T07:49:12.385Z,102162.31
2022-10-12T07:54:20.961Z,102158.28
2022-10-12T07:59:25.436Z,102155.16
2022-10-12T08:04:28.230Z,102154.75
2022-10-12T08:09:32.414Z,102161.25
2022-10-12T08:14:35.177Z,102155.25
2022-10-12T08:19:37.905Z,102162.50
2022-10-12T08:24:42.183Z,102168.63
2022-10-12T08:29:44.961Z,102163.75
2022-10-12T08:34:47.684Z,102159.03
2022-10-12T08:39:51.761Z,102161.09
2022-10-12T08:45:04.644Z,102161.63
2022-10-12T08:50:12.592Z,102159.53
2022-10-12T08:55:25.390Z,102160.03
2022-10-12T09:00:30.636Z,102142.66
2022-10-12T09:05:38.575Z,102157.41
2022-10-12T09:10:48.285Z,102141.03
2022-10-12T09:15:54.095Z,102137.47
2022-10-12T09:20:57.781Z,102131.41
2022-10-12T09:26:07.960Z,102137.44
2022-10-12T09:31:26.486Z,102136.88
2022-10-12T09:36:33.142Z,102128.22
2022-10-12T09:41:42.745Z,102132.44
2022-10-12T09:46:50.507Z,102121.94
2022-10-12T09:52:00.969Z,102129.78
2022-10-12T09:57:05.158Z,102127.41
2022-10-12T10:02:16.395Z,102131.34
2022-10-12T10:07:28.584Z,102128.41
2022-10-12T10:12:32.944Z,102119.59
2022-10-12T10:17:35.763Z,102109.25
2022-10-12T10:22:38.501Z,102108.34
2022-10-12T10:27:42.594Z,102116.38
2022-10-12T10:32:46.976Z,102108.78
2022-10-12T10:37:52.413Z,102099.06
2022-10-12T10:42:59.439Z,102090.59
2022-10-12T10:48:09.437Z,102088.19
2022-10-12T10:53:20.484Z,102085.38
2022-10-12T10:58:35.169Z,102081.25
2022-10-12T11:03:52.257Z,102076.97
2022-10-12T11:09:04.728Z,102067.56
2022-10-12T11:14:16.206Z,102063.47
2022-10-12T11:19:30.319Z,102057.66
2022-10-12T11:24:37.386Z,102044.50
2022-10-12T11:29:42.428Z,102033.50
2022-10-12T11:34:50.766Z,102036.81
2022-10-12T11:39:55.083Z,102032.41
2022-10-12T11:45:01.981Z,102034.56
2022-10-12T11:50:07.799Z,102025.66
2022-10-12T11:55:31.502Z,102012.88
2022-10-12T12:00:44.108Z,102001.13
2022-10-12T12:05:46.883Z,102000.09
2022-10-12T12:11:03.276Z,101997.94
2022-10-12T12:16:34.519Z,101991.84
2022-10-12T12:22:18.821Z,101992.72
2022-10-12T12:27:24.731Z,101974.03
2022-10-12T12:32:43.120Z,101967.84
2022-10-12T12:37:47.385Z,101960.16
2022-10-12T12:42:50.475Z,101959.03
2022-10-12T12:47:54.692Z,101955.94
2022-10-12T12:53:05.045Z,101957.50
2022-10-12T12:58:43.370Z,101955.06
2022-10-12T13:04:11.838Z,101959.34
2022-10-12T13:09:41.414Z,101953.44
2022-10-12T13:15:00.110Z,101947.06
2022-10-12T13:20:12.655Z,101943.25
2022-10-12T13:25:26.298Z,101946.16
2022-10-12T13:30:35.357Z,101942.75
2022-10-12T13:35:43.745Z,101942.16
2022-10-12T13:40:58.696Z,101930.69
2022-10-12T13:46:02.004Z,101924.69
2022-10-12T13:51:25.541Z,101917.63
2022-10-12T13:56:31.403Z,101916.84
2022-10-12T14:01:35.459Z,101905.22
2022-10-12T14:06:39.643Z,101898.25
2022-10-12T14:11:44.506Z,101900.53
2022-10-12T14:16:47.355Z,101902.75
2022-10-12T14:21:52.015Z,101891.91
2022-10-12T14:26:58.746Z,101881.88
2022-10-12T14:32:04.050Z,101877.84
2022-10-12T14:37:24.023Z,101877.13
2022-10-12T14:42:33.357Z,101870.28
2022-10-12T14:47:39.973Z,101851.97
2022-10-12T14:52:47.240Z,101849.56
2022-10-12T14:57:50.838Z,101849.34
2022-10-12T15:02:54.074Z,101846.22
2022-10-12T15:07:58.613Z,101834.66
2022-10-12T15:13:01.552Z,101834.06
2022-10-12T15:18:04.408Z,101831.91
2022-10-12T15:23:08.595Z,101828.31
2022-10-12T15:28:11.409Z,101816.13
2022-10-12T15:33:14.543Z,101815.91
2022-10-12T15:38:18.726Z,101802.78
2022-10-12T15:43:21.460Z,101795.13
2022-10-12T15:48:24.267Z,101798.53
2022-10-12T15:53:28.605Z,101788.97
2022-10-12T15:58:31.542Z,101787.91
2022-10-12T16:03:34.276Z,101780.59
2022-10-12T16:08:38.462Z,101785.28
2022-10-12T16:13:47.020Z,101783.66
2022-10-12T16:18:53.854Z,101777.44
2022-10-12T16:23:57.995Z,101782.50
2022-10-12T16:29:00.736Z,101765.91
2022-10-12T16:34:03.484Z,101772.66
2022-10-12T16:39:07.561Z,101786.09
2022-10-12T16:44:10.292Z,101784.22
2022-10-12T16:49:13.030Z,101779.34
2022-10-12T16:54:17.124Z,101776.25
2022-10-12T16:59:19.901Z,101780.28
2022-10-12T17:04:23.050Z,101787.34
2022-10-12T17:09:27.562Z,101787.59
2022-10-12T17:14:30.833Z,101784.91
2022-10-12T17:19:35.312Z,101785.28
2022-10-12T17:24:42.320Z,101795.28
2022-10-12T17:29:45.115Z,101786.28
2022-10-12T17:34:48.012Z,101784.88
2022-10-12T17:39:52.453Z,101787.56
2022-10-12T17:44:56.144Z,101782.66
2022-10-12T17:49:58.911Z,101784.47
2022-10-12T17:55:03.105Z,101778.16
2022-10-12T18:00:07.683Z,101789.22
2022-10-12T18:05:14.409Z,101783.41
2022-10-12T18:10:18.698Z,101781.47
2022-10-12T18:15:23.123Z,101774.22
2022-10-12T18:20:26.107Z,101780.88
2022-10-12T18:25:30.917Z,101772.22
2022-10-12T18:30:35.089Z,101777.91
2022-10-12T18:35:37.891Z,101780.88
2022-10-12T18:40:42.835Z,101768.59
2022-10-12T18:45:46.830Z,101773.44
2022-10-12T18:50:49.815Z,101769.16
2022-10-12T18:55:54.037Z,101771.22
2022-10-12T19:00:56.929Z,101768.66
2022-10-12T19:06:05.597Z,101771.63
2022-10-12T19:11:09.949Z,101763.63
2022-10-12T19:16:15.109Z,101756.75
2022-10-12T19:21:19.597Z,101745.75
2022-10-12T19:26:29.865Z,101754.69
2022-10-12T19:31:35.698Z,101750.69
2022-10-12T19:36:39.613Z,101746.13
2022-10-12T19:41:44.452Z,101741.75
2022-10-12T19:46:48.883Z,101747.19
2022-10-12T19:51:51.801Z,101733.97
2022-10-12T19:56:56.124Z,101727.41
2022-10-12T20:01:59.028Z,101726.47
2022-10-12T20:07:01.905Z,101725.59
2022-10-12T20:12:06.584Z,101723.63
2022-10-12T20:17:09.338Z,101722.22
2022-10-12T20:22:12.180Z,101715.59
2022-10-12T20:27:16.410Z,101701.34
2022-10-12T20:32:19.397Z,101699.00
2022-10-12T20:37:23.828Z,101703.59
2022-10-12T20:42:28.353Z,101699.56
2022-10-12T20:47:31.287Z,101693.00
2022-10-12T20:52:34.256Z,101693.09
2022-10-12T20:57:38.391Z,101679.91
2022-10-12T21:02:41.223Z,101681.19
2022-10-12T21:07:44.121Z,101682.63
2022-10-12T21:12:48.558Z,101677.19
2022-10-12T21:17:51.516Z,101678.88
2022-10-12T21:22:54.372Z,101685.22
2022-10-12T21:27:58.859Z,101676.03
2022-10-12T21:33:03.449Z,101672.41
2022-10-12T21:38:06.679Z,101668.91
2022-10-12T21:43:14.086Z,101667.72
2022-10-12T21:48:19.738Z,101664.00
2022-10-12T21:53:22.610Z,101664.63
2022-10-12T21:58:29.478Z,101666.88
2022-10-12T22:03:36.185Z,101660.53
2022-10-12T22:08:38.902Z,101654.84
2022-10-12T22:13:50.978Z,101658.56
2022-10-12T22:18:53.782Z,101657.25
2022-10-12T22:24:00.475Z,101656.63
2022-10-12T22:29:07.544Z,101654.94
2022-10-12T22:34:11.054Z,101646.31
2022-10-12T22:39:13.915Z,101653.16
2022-10-12T22:44:22.171Z,101639.84
2022-10-12T22:49:30.047Z,101644.72
2022-10-12T22:54:32.800Z,101635.66
2022-10-12T22:59:36.945Z,101625.31
2022-10-12T23:04:39.696Z,101625.31
2022-10-12T23:09:44.378Z,101619.25
2022-10-12T23:14:48.564Z,101603.84
2022-10-12T23:19:51.492Z,101600.38
2022-10-12T23:24:54.225Z,101599.59
2022-10-12T23:29:58.335Z,101589.53
2022-10-12T23:35:01.067Z,101581.13
2022-10-12T23:40:03.858Z,101591.47
2022-10-12T23:45:08.478Z,101590.19
2022-10-12T23:50:11.765Z,101590.19
2022-10-12T23:55:14.646Z,101589.69
